sensor_id;sensor_type;location;lat;lon;timestamp;pressure;altitude;pressure_sealevel;temperature;humidity
12991;BME280;6560;57.692;11.958;2022-10-30T00:00:15;101343.06;;;28.58;100.00
12991;BME280;6560;57.692;11.958;2022-10-30T00:02:40;101344.31;;;28.85;100.00
12991;BME280;6560;57.692;11.958;2022-10-30T00:05:06;101347.44;;;28.45;100.00
12991;BME280;6560;57.692;11.958;2022-10-30T00:07:32;101276.09;;;27.84;100.00
12991;BME280;6560;57.692;11.958;2022-10-30T00:09:58;101329.47;;;27.87;100.00
12991;BME280;6560;57.692;11.958;2022-10-30T00:12:23;101339.75;;;28.12;100.00
12991;BME280;6560;57.692;11.958;2022-10-30T00:14:49;101325.63;;;28.37;100.00
12991;BME280;6560;57.692;11.958;2022-10-30T00:17:14;101295.00;;;28.46;100.00
12991;BME280;6560;57.692;11.958;2022-10-30T00:19:40;101341.00;;;28.35;100.00
12991;BME280;6560;57.692;11.958;2022-10-30T00:22:05;101277.75;;;27.71;100.00
12991;BME280;6560;57.692;11.958;2022-10-30T00:24:31;101338.75;;;28.05;100.00
12991;BME280;6560;57.692;11.958;2022-10-30T00:26:56;101342.56;;;28.17;100.00
12991;BME280;6560;57.692;11.958;2022-10-30T00:29:22;101336.94;;;28.04;100.00
12991;BME280;6560;57.692;11.958;2022-10-30T00:31:49;101292.19;;;27.15;100.00
12991;BME280;6560;57.692;11.958;2022-10-30T00:34:15;101292.94;;;27.60;100.00
12991;BME280;6560;57.692;11.958;2022-10-30T00:36:40;101306.19;;;27.42;100.00
12991;BME280;6560;57.692;11.958;2022-10-30T00:39:06;101330.94;;;27.63;100.00
12991;BME280;6560;57.692;11.958;2022-10-30T00:41:31;101339.34;;;27.82;100.00
12991;BME280;6560;57.692;11.958;2022-10-30T00:43:57;101373.78;;;27.90;100.00
12991;BME280;6560;57.692;11.958;2022-10-30T00:46:30;101296.56;;;27.61;100.00
12991;BME280;6560;57.692;11.958;2022-10-30T00:49:12;101290.84;;;27.43;100.00
12991;BME280;6560;57.692;11.958;2022-10-30T00:51:44;101356.50;;;27.82;100.00
12991;BME280;6560;57.692;11.958;2022-10-30T00:54:11;101296.63;;;27.65;100.00
12991;BME280;6560;57.692;11.958;2022-10-30T00:56:38;101322.31;;;27.92;100.00
12991;BME280;6560;57.692;11.958;2022-10-30T00:59:07;101354.09;;;28.02;100.00
12991;BME280;6560;57.692;11.958;2022-10-30T01:01:37;101303.16;;;27.80;100.00
12991;BME280;6560;57.692;11.958;2022-10-30T01:04:05;101350.69;;;28.15;100.00
12991;BME280;6560;57.692;11.958;2022-10-30T01:06:36;101331.94;;;28.36;100.00
12991;BME280;6560;57.692;11.958;2022-10-30T01:09:03;101273.22;;;28.40;100.00
12991;BME280;6560;57.692;11.958;2022-10-30T01:11:29;101315.47;;;28.20;100.00
12991;BME280;6560;57.692;11.958;2022-10-30T01:13:59;101367.28;;;28.42;100.00
12991;BME280;6560;57.692;11.958;2022-10-30T01:35:58;101320.16;;;29.17;100.00
12991;BME280;6560;57.692;11.958;2022-10-30T01:40:56;101321.97;;;29.17;100.00
12991;BME280;6560;57.692;11.958;2022-10-30T01:43:21;101346.66;;;29.40;100.00
12991;BME280;6560;57.692;11.958;2022-10-30T02:01:44;101321.88;;;28.25;100.00
12991;BME280;6560;57.692;11.958;2022-10-30T02:04:11;101326.78;;;28.58;100.00
12991;BME280;6560;57.692;11.958;2022-10-30T02:06:37;101343.28;;;28.06;100.00
12991;BME280;6560;57.692;11.958;2022-10-30T02:09:04;101297.19;;;27.43;100.00
12991;BME280;6560;57.692;11.958;2022-10-30T02:11:31;101256.94;;;27.10;100.00
12991;BME280;6560;57.692;11.958;2022-10-30T02:14:00;101342.34;;;28.04;100.00
12991;BME280;6560;57.692;11.958;2022-10-30T02:16:27;101332.94;;;27.78;100.00
12991;BME280;6560;57.692;11.958;2022-10-30T02:18:52;101306.66;;;27.72;100.00
12991;BME280;6560;57.692;11.958;2022-10-30T02:21:18;101320.16;;;27.14;100.00
12991;BME280;6560;57.692;11.958;2022-10-30T02:23:44;101357.38;;;27.80;100.00
12991;BME280;6560;57.692;11.958;2022-10-30T02:26:09;101341.53;;;28.10;100.00
12991;BME280;6560;57.692;11.958;2022-10-30T02:28:35;101319.63;;;27.93;100.00
12991;BME280;6560;57.692;11.958;2022-10-30T02:31:01;101294.69;;;28.19;100.00
12991;BME280;6560;57.692;11.958;2022-10-30T02:33:26;101333.50;;;28.16;100.00
12991;BME280;6560;57.692;11.958;2022-10-30T02:35:52;101348.78;;;28.11;100.00
12991;BME280;6560;57.692;11.958;2022-10-30T02:38:18;101327.63;;;27.86;100.00
12991;BME280;6560;57.692;11.958;2022-10-30T02:40:44;101339.63;;;28.01;100.00
12991;BME280;6560;57.692;11.958;2022-10-30T02:43:09;101270.81;;;27.33;100.00
12991;BME280;6560;57.692;11.958;2022-10-30T02:45:35;101300.53;;;27.86;100.00
12991;BME280;6560;57.692;11.958;2022-10-30T02:48:01;101335.69;;;28.44;100.00
12991;BME280;6560;57.692;11.958;2022-10-30T02:50:26;101210.72;;;27.58;100.00
12991;BME280;6560;57.692;11.958;2022-10-30T02:52:52;101337.53;;;28.47;100.00
12991;BME280;6560;57.692;11.958;2022-10-30T02:55:18;101299.38;;;28.33;100.00
12991;BME280;6560;57.692;11.958;2022-10-30T02:57:44;101340.16;;;28.42;100.00
12991;BME280;6560;57.692;11.958;2022-10-30T03:00:10;101340.22;;;28.45;100.00
12991;BME280;6560;57.692;11.958;2022-10-30T03:02:35;101344.88;;;27.89;100.00
12991;BME280;6560;57.692;11.958;2022-10-30T03:05:01;101321.97;;;27.67;100.00
12991;BME280;6560;57.692;11.958;2022-10-30T03:07:27;101329.41;;;27.84;100.00
12991;BME280;6560;57.692;11.958;2022-10-30T03:09:52;101272.81;;;27.46;100.00
12991;BME280;6560;57.692;11.958;2022-10-30T03:12:19;101341.13;;;27.81;100.00
12991;BME280;6560;57.692;11.958;2022-10-30T03:14:44;101282.72;;;27.43;100.00
12991;BME280;6560;57.692;11.958;2022-10-30T03:17:10;101281.34;;;27.70;100.00
12991;BME280;6560;57.692;11.958;2022-10-30T03:19:35;101341.13;;;27.81;100.00
12991;BME280;6560;57.692;11.958;2022-10-30T03:22:01;101284.47;;;27.39;100.00
12991;BME280;6560;57.692;11.958;2022-10-30T03:24:26;101334.25;;;28.06;100.00
12991;BME280;6560;57.692;11.958;2022-10-30T03:26:52;101322.19;;;27.84;100.00
12991;BME280;6560;57.692;11.958;2022-10-30T03:29:17;101348.63;;;27.42;100.00
12991;BME280;6560;57.692;11.958;2022-10-30T03:31:43;101308.47;;;27.18;100.00
12991;BME280;6560;57.692;11.958;2022-10-30T03:34:08;101302.66;;;26.93;100.00
12991;BME280;6560;57.692;11.958;2022-10-30T03:36:34;101273.91;;;27.00;100.00
12991;BME280;6560;57.692;11.958;2022-10-30T03:38:59;101330.03;;;27.63;100.00
12991;BME280;6560;57.692;11.958;2022-10-30T03:41:25;101329.19;;;27.70;100.00
12991;BME280;6560;57.692;11.958;2022-10-30T03:43:50;101286.78;;;27.15;100.00
12991;BME280;6560;57.692;11.958;2022-10-30T03:46:16;101330.06;;;27.66;100.00
12991;BME280;6560;57.692;11.958;2022-10-30T03:48:41;101336.66;;;27.85;100.00
12991;BME280;6560;57.692;11.958;2022-10-30T03:51:07;101252.75;;;27.30;100.00
12991;BME280;6560;57.692;11.958;2022-10-30T03:53:32;101212.50;;;26.96;100.00
12991;BME280;6560;57.692;11.958;2022-10-30T03:56:00;101307.09;;;27.43;100.00
12991;BME280;6560;57.692;11.958;2022-10-30T03:58:27;101260.47;;;27.06;100.00
12991;BME280;6560;57.692;11.958;2022-10-30T04:00:53;101309.72;;;27.38;100.00
12991;BME280;6560;57.692;11.958;2022-10-30T04:03:18;101233.28;;;27.57;100.00
12991;BME280;6560;57.692;11.958;2022-10-30T04:05:44;101269.41;;;27.56;100.00
12991;BME280;6560;57.692;11.958;2022-10-30T04:08:11;101308.06;;;28.06;100.00
12991;BME280;6560;57.692;11.958;2022-10-30T04:10:41;101307.81;;;27.88;100.00
12991;BME280;6560;57.692;11.958;2022-10-30T04:13:08;101284.19;;;27.80;100.00
12991;BME280;6560;57.692;11.958;2022-10-30T04:15:35;101313.72;;;28.23;100.00
12991;BME280;6560;57.692;11.958;2022-10-30T04:18:00;101267.03;;;28.51;100.00
12991;BME280;6560;57.692;11.958;2022-10-30T04:20:26;101302.66;;;28.80;100.00
12991;BME280;6560;57.692;11.958;2022-10-30T04:22:56;101291.28;;;28.35;100.00
12991;BME280;6560;57.692;11.958;2022-10-30T04:25:23;101314.84;;;28.43;100.00
12991;BME280;6560;57.692;11.958;2022-10-30T04:27:48;101287.75;;;28.45;100.00
12991;BME280;6560;57.692;11.958;2022-10-30T04:30:14;101310.72;;;28.74;100.00
12991;BME280;6560;57.692;11.958;2022-10-30T04:32:49;101313.53;;;28.85;100.00
12991;BME280;6560;57.692;11.958;2022-10-30T04:35:16;101268.09;;;28.69;100.00
12991;BME280;6560;57.692;11.958;2022-10-30T04:37:51;101320.69;;;28.77;100.00
12991;BME280;6560;57.692;11.958;2022-10-30T04:40:16;101262.72;;;27.95;100.00
12991;BME280;6560;57.692;11.958;2022-10-30T04:42:45;101250.66;;;27.71;100.00
12991;BME280;6560;57.692;11.958;2022-10-30T04:45:11;101296.16;;;27.95;100.00
12991;BME280;6560;57.692;11.958;2022-10-30T04:47:36;101324.66;;;28.31;100.00
12991;BME280;6560;57.692;11.958;2022-10-30T04:50:02;101236.94;;;27.59;100.00
12991;BME280;6560;57.692;11.958;2022-10-30T04:52:27;101330.84;;;28.19;100.00
12991;BME280;6560;57.692;11.958;2022-10-30T04:54:53;101345.41;;;28.26;100.00
12991;BME280;6560;57.692;11.958;2022-10-30T04:57:18;101288.94;;;27.96;100.00
12991;BME280;6560;57.692;11.958;2022-10-30T04:59:44;101187.63;;;27.24;100.00
12991;BME280;6560;57.692;11.958;2022-10-30T05:02:09;101283.50;;;27.97;100.00
12991;BME280;6560;57.692;11.958;2022-10-30T05:04:34;101222.63;;;27.68;100.00
12991;BME280;6560;57.692;11.958;2022-10-30T05:07:00;101352.16;;;28.60;100.00
12991;BME280;6560;57.692;11.958;2022-10-30T05:09:28;101253.88;;;28.11;100.00
12991;BME280;6560;57.692;11.958;2022-10-30T05:11:54;101279.47;;;28.31;100.00
12991;BME280;6560;57.692;11.958;2022-10-30T05:14:19;101303.50;;;28.76;100.00
12991;BME280;6560;57.692;11.958;2022-10-30T05:16:45;101300.94;;;28.91;100.00
12991;BME280;6560;57.692;11.958;2022-10-30T05:19:10;101272.50;;;28.54;100.00
12991;BME280;6560;57.692;11.958;2022-10-30T05:21:36;101311.53;;;28.70;100.00
12991;BME280;6560;57.692;11.958;2022-10-30T05:24:01;101303.72;;;28.99;100.00
12991;BME280;6560;57.692;11.958;2022-10-30T05:26:27;101309.88;;;28.80;100.00
12991;BME280;6560;57.692;11.958;2022-10-30T05:28:52;101271.09;;;28.95;100.00
12991;BME280;6560;57.692;11.958;2022-10-30T05:31:18;101319.19;;;29.09;100.00
12991;BME280;6560;57.692;11.958;2022-10-30T05:33:43;101316.50;;;29.11;100.00
12991;BME280;6560;57.692;11.958;2022-10-30T05:36:09;101313.81;;;29.15;100.00
12991;BME280;6560;57.692;11.958;2022-10-30T05:38:34;101316.25;;;28.85;100.00
12991;BME280;6560;57.692;11.958;2022-10-30T05:41:00;101269.63;;;28.41;100.00
12991;BME280;6560;57.692;11.958;2022-10-30T05:43:25;101320.09;;;29.08;100.00
12991;BME280;6560;57.692;11.958;2022-10-30T05:45:51;101257.94;;;28.49;100.00
12991;BME280;6560;57.692;11.958;2022-10-30T05:48:16;101256.03;;;28.38;100.00
12991;BME280;6560;57.692;11.958;2022-10-30T05:50:42;101301.13;;;28.27;100.00
12991;BME280;6560;57.692;11.958;2022-10-30T05:53:08;101248.28;;;27.97;100.00
12991;BME280;6560;57.692;11.958;2022-10-30T05:55:33;101331.94;;;28.33;100.00
12991;BME280;6560;57.692;11.958;2022-10-30T05:58:01;101290.38;;;27.71;100.00
12991;BME280;6560;57.692;11.958;2022-10-30T06:00:29;101265.78;;;27.54;100.00
12991;BME280;6560;57.692;11.958;2022-10-30T06:05:28;101323.25;;;28.65;100.00
12991;BME280;6560;57.692;11.958;2022-10-30T06:07:54;101197.75;;;28.04;100.00
12991;BME280;6560;57.692;11.958;2022-10-30T06:10:21;101187.06;;;28.16;100.00
12991;BME280;6560;57.692;11.958;2022-10-30T06:12:58;101322.59;;;28.88;100.00
12991;BME280;6560;57.692;11.958;2022-10-30T06:15:24;101278.84;;;28.58;100.00
12991;BME280;6560;57.692;11.958;2022-10-30T06:17:50;101289.81;;;28.70;100.00
12991;BME280;6560;57.692;11.958;2022-10-30T06:20:17;101344.34;;;28.90;100.00
12991;BME280;6560;57.692;11.958;2022-10-30T06:22:56;101314.31;;;28.73;100.00
12991;BME280;6560;57.692;11.958;2022-10-30T06:25:22;101317.22;;;28.16;100.00
12991;BME280;6560;57.692;11.958;2022-10-30T06:27:48;101307.91;;;28.70;100.00
12991;BME280;6560;57.692;11.958;2022-10-30T06:30:13;101212.22;;;28.90;100.00
12991;BME280;6560;57.692;11.958;2022-10-30T06:32:39;101311.22;;;29.27;100.00
12991;BME280;6560;57.692;11.958;2022-10-30T06:35:04;101275.78;;;29.12;100.00
12991;BME280;6560;57.692;11.958;2022-10-30T06:37:30;101283.13;;;29.25;100.00
12991;BME280;6560;57.692;11.958;2022-10-30T06:39:55;101317.75;;;29.46;100.00
12991;BME280;6560;57.692;11.958;2022-10-30T06:42:21;101274.22;;;29.40;100.00
12991;BME280;6560;57.692;11.958;2022-10-30T06:44:46;101301.41;;;29.48;100.00
12991;BME280;6560;57.692;11.958;2022-10-30T06:47:13;101252.19;;;29.05;100.00
12991;BME280;6560;57.692;11.958;2022-10-30T06:49:39;101240.56;;;29.26;100.00
12991;BME280;6560;57.692;11.958;2022-10-30T06:52:04;101305.38;;;29.92;100.00
12991;BME280;6560;57.692;11.958;2022-10-30T06:54:30;101264.28;;;29.45;100.00
12991;BME280;6560;57.692;11.958;2022-10-30T06:56:55;101331.69;;;29.98;100.00
12991;BME280;6560;57.692;11.958;2022-10-30T06:59:21;101268.97;;;29.72;100.00
12991;BME280;6560;57.692;11.958;2022-10-30T07:01:46;101329.03;;;30.15;100.00
12991;BME280;6560;57.692;11.958;2022-10-30T07:04:12;101264.31;;;29.54;100.00
12991;BME280;6560;57.692;11.958;2022-10-30T07:06:37;101309.75;;;29.72;100.00
12991;BME280;6560;57.692;11.958;2022-10-30T07:09:03;101310.53;;;29.53;100.00
12991;BME280;6560;57.692;11.958;2022-10-30T07:11:28;101317.88;;;29.69;100.00
12991;BME280;6560;57.692;11.958;2022-10-30T07:13:54;101292.34;;;29.43;100.00
12991;BME280;6560;57.692;11.958;2022-10-30T07:16:19;101344.19;;;29.71;100.00
12991;BME280;6560;57.692;11.958;2022-10-30T07:18:45;101333.22;;;29.62;100.00
12991;BME280;6560;57.692;11.958;2022-10-30T07:21:10;101319.63;;;29.61;100.00
12991;BME280;6560;57.692;11.958;2022-10-30T07:23:36;101363.13;;;29.61;100.00
12991;BME280;6560;57.692;11.958;2022-10-30T07:26:01;101345.63;;;29.28;100.00
12991;BME280;6560;57.692;11.958;2022-10-30T07:28:27;101321.13;;;29.21;100.00
12991;BME280;6560;57.692;11.958;2022-10-30T07:30:52;101342.19;;;29.45;100.00
12991;BME280;6560;57.692;11.958;2022-10-30T07:33:18;101288.44;;;29.15;100.00
12991;BME280;6560;57.692;11.958;2022-10-30T07:35:43;101292.03;;;29.06;100.00
12991;BME280;6560;57.692;11.958;2022-10-30T07:38:10;101341.63;;;28.90;100.00
12991;BME280;6560;57.692;11.958;2022-10-30T07:40:36;101338.38;;;28.41;100.00
12991;BME280;6560;57.692;11.958;2022-10-30T07:43:03;101368.28;;;28.49;100.00
12991;BME280;6560;57.692;11.958;2022-10-30T07:45:29;101377.97;;;29.03;100.00
12991;BME280;6560;57.692;11.958;2022-10-30T07:47:55;101303.91;;;28.36;100.00
12991;BME280;6560;57.692;11.958;2022-10-30T07:50:20;101316.69;;;28.44;100.00
12991;BME280;6560;57.692;11.958;2022-10-30T07:52:46;101371.97;;;28.54;100.00
12991;BME280;6560;57.692;11.958;2022-10-30T07:55:12;101378.97;;;28.34;100.00
12991;BME280;6560;57.692;11.958;2022-10-30T07:57:39;101392.94;;;28.66;100.00
12991;BME280;6560;57.692;11.958;2022-10-30T08:00:08;101247.91;;;27.68;100.00
12991;BME280;6560;57.692;11.958;2022-10-30T08:02:34;101306.63;;;28.36;100.00
12991;BME280;6560;57.692;11.958;2022-10-30T08:05:00;101372.53;;;28.27;100.00
12991;BME280;6560;57.692;11.958;2022-10-30T08:07:34;101306.16;;;28.73;100.00
12991;BME280;6560;57.692;11.958;2022-10-30T08:09:59;101241.06;;;28.75;100.00
12991;BME280;6560;57.692;11.958;2022-10-30T08:12:25;101284.88;;;29.17;100.00
12991;BME280;6560;57.692;11.958;2022-10-30T08:14:52;101259.41;;;29.03;100.00
12991;BME280;6560;57.692;11.958;2022-10-30T08:17:17;101359.97;;;29.15;100.00
12991;BME280;6560;57.692;11.958;2022-10-30T08:19:43;101305.28;;;28.76;100.00
12991;BME280;6560;57.692;11.958;2022-10-30T08:22:12;101274.16;;;28.40;100.00
12991;BME280;6560;57.692;11.958;2022-10-30T08:24:37;101212.28;;;28.10;100.00
12991;BME280;6560;57.692;11.958;2022-10-30T08:27:03;101364.41;;;29.04;100.00
12991;BME280;6560;57.692;11.958;2022-10-30T08:29:29;101308.88;;;29.81;100.00
12991;BME280;6560;57.692;11.958;2022-10-30T08:31:55;101352.84;;;30.58;100.00
12991;BME280;6560;57.692;11.958;2022-10-30T08:34:20;101304.53;;;30.13;100.00
12991;BME280;6560;57.692;11.958;2022-10-30T08:36:50;101355.44;;;30.35;100.00
12991;BME280;6560;57.692;11.958;2022-10-30T08:39:17;101292.78;;;30.13;100.00
12991;BME280;6560;57.692;11.958;2022-10-30T08:41:42;101361.75;;;30.24;100.00
12991;BME280;6560;57.692;11.958;2022-10-30T08:44:08;101355.28;;;30.02;100.00
12991;BME280;6560;57.692;11.958;2022-10-30T08:46:34;101363.31;;;29.85;100.00
12991;BME280;6560;57.692;11.958;2022-10-30T08:49:00;101376.31;;;30.32;100.00
12991;BME280;6560;57.692;11.958;2022-10-30T08:51:25;101316.47;;;29.09;100.00
12991;BME280;6560;57.692;11.958;2022-10-30T08:53:51;101368.81;;;29.94;100.00
12991;BME280;6560;57.692;11.958;2022-10-30T08:56:17;101307.84;;;28.61;100.00
12991;BME280;6560;57.692;11.958;2022-10-30T08:58:43;101349.41;;;29.43;100.00
12991;BME280;6560;57.692;11.958;2022-10-30T09:01:09;101340.53;;;29.66;100.00
12991;BME280;6560;57.692;11.958;2022-10-30T09:03:34;101353.59;;;29.07;100.00
12991;BME280;6560;57.692;11.958;2022-10-30T09:06:00;101242.31;;;28.24;100.00
12991;BME280;6560;57.692;11.958;2022-10-30T09:08:26;101273.09;;;29.14;100.00
12991;BME280;6560;57.692;11.958;2022-10-30T09:10:56;101270.59;;;29.40;100.00
12991;BME280;6560;57.692;11.958;2022-10-30T09:13:22;101281.19;;;29.11;100.00
12991;BME280;6560;57.692;11.958;2022-10-30T09:15:47;101343.56;;;29.03;100.00
12991;BME280;6560;57.692;11.958;2022-10-30T09:18:13;101346.84;;;28.72;100.00
12991;BME280;6560;57.692;11.958;2022-10-30T09:20:38;101352.63;;;29.01;100.00
12991;BME280;6560;57.692;11.958;2022-10-30T09:23:04;101370.78;;;30.20;100.00
12991;BME280;6560;57.692;11.958;2022-10-30T09:25:29;101379.50;;;29.68;100.00
12991;BME280;6560;57.692;11.958;2022-10-30T09:27:55;101297.59;;;28.34;100.00
12991;BME280;6560;57.692;11.958;2022-10-30T09:30:21;101304.91;;;29.31;100.00
12991;BME280;6560;57.692;11.958;2022-10-30T09:32:53;101394.28;;;30.07;100.00
12991;BME280;6560;57.692;11.958;2022-10-30T09:35:18;101369.59;;;29.78;100.00
12991;BME280;6560;57.692;11.958;2022-10-30T09:37:44;101359.22;;;28.45;100.00
12991;BME280;6560;57.692;11.958;2022-10-30T09:40:18;101325.63;;;28.34;100.00
12991;BME280;6560;57.692;11.958;2022-10-30T09:42:46;101332.22;;;29.48;100.00
12991;BME280;6560;57.692;11.958;2022-10-30T09:50:57;101387.06;;;29.06;100.00
12991;BME280;6560;57.692;11.958;2022-10-30T09:56:23;101395.13;;;29.92;100.00
12991;BME280;6560;57.692;11.958;2022-10-30T10:01:36;101331.16;;;29.31;100.00
12991;BME280;6560;57.692;11.958;2022-10-30T10:04:22;101383.66;;;30.49;100.00
12991;BME280;6560;57.692;11.958;2022-10-30T10:06:54;101365.13;;;29.89;100.00
12991;BME280;6560;57.692;11.958;2022-10-30T10:09:23;101405.34;;;30.36;100.00
12991;BME280;6560;57.692;11.958;2022-10-30T10:11:58;101399.22;;;30.95;100.00
12991;BME280;6560;57.692;11.958;2022-10-30T10:14:34;101369.06;;;30.37;100.00
12991;BME280;6560;57.692;11.958;2022-10-30T10:17:04;101411.06;;;31.01;100.00
12991;BME280;6560;57.692;11.958;2022-10-30T10:22:41;101407.44;;;29.49;100.00
12991;BME280;6560;57.692;11.958;2022-10-30T10:25:12;101409.72;;;30.05;100.00
12991;BME280;6560;57.692;11.958;2022-10-30T10:27:51;101370.88;;;30.41;100.00
12991;BME280;6560;57.692;11.958;2022-10-30T10:30:20;101390.63;;;30.00;100.00
12991;BME280;6560;57.692;11.958;2022-10-30T10:38:19;101396.50;;;30.88;100.00
12991;BME280;6560;57.692;11.958;2022-10-30T10:44:11;101393.78;;;31.01;100.00
12991;BME280;6560;57.692;11.958;2022-10-30T10:47:00;101397.06;;;30.12;100.00
12991;BME280;6560;57.692;11.958;2022-10-30T10:50:14;101384.72;;;31.03;100.00
12991;BME280;6560;57.692;11.958;2022-10-30T10:52:53;101348.38;;;31.00;100.00
12991;BME280;6560;57.692;11.958;2022-10-30T10:55:35;101232.69;;;29.64;100.00
12991;BME280;6560;57.692;11.958;2022-10-30T11:00:48;101296.47;;;30.40;100.00
12991;BME280;6560;57.692;11.958;2022-10-30T11:03:29;101378.34;;;30.94;100.00
12991;BME280;6560;57.692;11.958;2022-10-30T11:06:19;101364.78;;;31.13;100.00
12991;BME280;6560;57.692;11.958;2022-10-30T11:08:48;101365.72;;;31.56;100.00
12991;BME280;6560;57.692;11.958;2022-10-30T11:11:14;101346.56;;;31.99;100.00
12991;BME280;6560;57.692;11.958;2022-10-30T11:13:42;101349.25;;;32.17;100.00
12991;BME280;6560;57.692;11.958;2022-10-30T11:16:34;101359.34;;;31.79;100.00
12991;BME280;6560;57.692;11.958;2022-10-30T11:19:03;101343.41;;;32.99;100.00
12991;BME280;6560;57.692;11.958;2022-10-30T11:21:37;101345.75;;;31.62;100.00
12991;BME280;6560;57.692;11.958;2022-10-30T11:24:03;101339.16;;;32.42;100.00
12991;BME280;6560;57.692;11.958;2022-10-30T11:26:41;101314.50;;;32.57;100.00
12991;BME280;6560;57.692;11.958;2022-10-30T11:29:14;101308.16;;;32.51;100.00
12991;BME280;6560;57.692;11.958;2022-10-30T11:31:44;101349.03;;;32.72;100.00
12991;BME280;6560;57.692;11.958;2022-10-30T11:34:14;101336.31;;;32.74;100.00
12991;BME280;6560;57.692;11.958;2022-10-30T11:36:48;101332.69;;;32.69;100.00
12991;BME280;6560;57.692;11.958;2022-10-30T11:39:26;101301.19;;;31.52;100.00
12991;BME280;6560;57.692;11.958;2022-10-30T11:42:02;101343.88;;;31.88;100.00
12991;BME280;6560;57.692;11.958;2022-10-30T11:44:37;101332.13;;;31.63;100.00
12991;BME280;6560;57.692;11.958;2022-10-30T11:47:04;101338.34;;;32.11;100.00
12991;BME280;6560;57.692;11.958;2022-10-30T11:49:45;101335.63;;;32.22;100.00
12991;BME280;6560;57.692;11.958;2022-10-30T11:52:15;101276.59;;;31.87;100.00
12991;BME280;6560;57.692;11.958;2022-10-30T11:54:47;101329.66;;;33.13;100.00
12991;BME280;6560;57.692;11.958;2022-10-30T11:57:21;101296.59;;;31.77;100.00
12991;BME280;6560;57.692;11.958;2022-10-30T11:59:49;101305.72;;;30.96;100.00
12991;BME280;6560;57.692;11.958;2022-10-30T12:02:23;101296.47;;;30.30;100.00
12991;BME280;6560;57.692;11.958;2022-10-30T12:04:51;101244.75;;;30.33;100.00
12991;BME280;6560;57.692;11.958;2022-10-30T12:07:33;101288.91;;;29.76;100.00
12991;BME280;6560;57.692;11.958;2022-10-30T12:09:58;101256.69;;;30.94;100.00
12991;BME280;6560;57.692;11.958;2022-10-30T12:12:49;101312.00;;;31.99;100.00
12991;BME280;6560;57.692;11.958;2022-10-30T12:17:39;101305.69;;;31.90;100.00
12991;BME280;6560;57.692;11.958;2022-10-30T12:20:06;101315.41;;;32.56;100.00
12991;BME280;6560;57.692;11.958;2022-10-30T12:22:34;101213.13;;;31.15;100.00
12991;BME280;6560;57.692;11.958;2022-10-30T12:25:02;101250.34;;;30.78;100.00
12991;BME280;6560;57.692;11.958;2022-10-30T12:27:30;101323.94;;;31.30;100.00
12991;BME280;6560;57.692;11.958;2022-10-30T12:30:06;101309.28;;;32.16;100.00
12991;BME280;6560;57.692;11.958;2022-10-30T12:33:15;101304.78;;;31.89;100.00
12991;BME280;6560;57.692;11.958;2022-10-30T12:35:45;101297.53;;;31.52;100.00
12991;BME280;6560;57.692;11.958;2022-10-30T12:43:58;101202.13;;;30.39;100.00
12991;BME280;6560;57.692;11.958;2022-10-30T12:46:35;101300.09;;;30.29;100.00
12991;BME280;6560;57.692;11.958;2022-10-30T12:49:13;101253.84;;;30.26;100.00
12991;BME280;6560;57.692;11.958;2022-10-30T12:52:15;101300.06;;;30.18;100.00
12991;BME280;6560;57.692;11.958;2022-10-30T12:55:01;101250.31;;;30.65;100.00
12991;BME280;6560;57.692;11.958;2022-10-30T12:57:32;101175.88;;;30.67;100.00
12991;BME280;6560;57.692;11.958;2022-10-30T13:00:10;101287.53;;;31.74;100.00
12991;BME280;6560;57.692;11.958;2022-10-30T13:05:20;101149.56;;;30.80;100.00
12991;BME280;6560;57.692;11.958;2022-10-30T13:08:16;101287.56;;;31.45;100.00
12991;BME280;6560;57.692;11.958;2022-10-30T13:10:48;101289.31;;;30.62;100.00
12991;BME280;6560;57.692;11.958;2022-10-30T13:13:23;101260.84;;;29.81;100.00
12991;BME280;6560;57.692;11.958;2022-10-30T13:15:52;101233.63;;;29.73;100.00
12991;BME280;6560;57.692;11.958;2022-10-30T13:18:21;101268.38;;;30.32;100.00
12991;BME280;6560;57.692;11.958;2022-10-30T13:23:43;101246.69;;;30.70;100.00
12991;BME280;6560;57.692;11.958;2022-10-30T13:31:25;101261.22;;;31.41;100.00
12991;BME280;6560;57.692;11.958;2022-10-30T13:34:08;101252.13;;;31.45;100.00
12991;BME280;6560;57.692;11.958;2022-10-30T13:36:53;101147.72;;;30.38;100.00
12991;BME280;6560;57.692;11.958;2022-10-30T13:47:54;101260.16;;;31.98;100.00
12991;BME280;6560;57.692;11.958;2022-10-30T13:50:34;101270.22;;;31.90;100.00
12991;BME280;6560;57.692;11.958;2022-10-30T13:53:04;101242.03;;;31.86;100.00
12991;BME280;6560;57.692;11.958;2022-10-30T13:55:34;101234.72;;;31.91;100.00
12991;BME280;6560;57.692;11.958;2022-10-30T14:00:56;101266.69;;;31.42;100.00
12991;BME280;6560;57.692;11.958;2022-10-30T14:06:45;101267.59;;;30.96;98.72
12991;BME280;6560;57.692;11.958;2022-10-30T14:09:41;101263.94;;;30.92;100.00
12991;BME280;6560;57.692;11.958;2022-10-30T14:12:45;101262.16;;;31.14;100.00
12991;BME280;6560;57.692;11.958;2022-10-30T14:20:44;101213.69;;;29.70;100.00
12991;BME280;6560;57.692;11.958;2022-10-30T14:25:40;101271.03;;;30.20;100.00
12991;BME280;6560;57.692;11.958;2022-10-30T14:28:20;101212.72;;;29.60;100.00
12991;BME280;6560;57.692;11.958;2022-10-30T14:30:45;101256.56;;;30.41;100.00
12991;BME280;6560;57.692;11.958;2022-10-30T14:44:18;101243.03;;;30.59;100.00
12991;BME280;6560;57.692;11.958;2022-10-30T14:49:56;101266.31;;;29.87;100.00